createdAt,value
2018-05-18T00:00:49.171Z,98053.03
2018-05-18T00:03:15.536Z,98047.43
2018-05-18T00:05:41.966Z,98043.98
2018-05-18T00:08:08.213Z,98045.59
2018-05-18T00:10:34.883Z,98058.36
2018-05-18T00:13:01.153Z,98059.13
2018-05-18T00:15:27.430Z,98058.84
2018-05-18T00:17:53.849Z,98057.31
2018-05-18T00:20:23.447Z,98052.22
2018-05-18T00:22:49.700Z,98054.09
2018-05-18T00:25:16.270Z,98055.34
2018-05-18T00:27:42.541Z,98051.55
2018-05-18T00:30:08.798Z,98058.97
2018-05-18T00:32:35.350Z,98060.13
2018-05-18T00:35:01.599Z,98062.23
2018-05-18T00:37:27.844Z,98050.58
2018-05-18T00:39:54.302Z,98057.57
2018-05-18T00:42:20.483Z,98052.64
2018-05-18T00:44:47.080Z,98052.72
2018-05-18T00:47:13.455Z,98050.11
2018-05-18T00:49:39.785Z,98054.38
2018-05-18T00:52:06.151Z,98044.96
2018-05-18T00:54:32.403Z,98039.42
2018-05-18T00:56:58.997Z,98037.23
2018-05-18T00:59:25.260Z,98035.44
2018-05-18T01:01:51.589Z,98038.14
2018-05-18T01:04:17.972Z,98035.11
2018-05-18T01:06:44.271Z,98030.83
2018-05-18T01:09:10.899Z,98035.17
2018-05-18T01:11:37.175Z,98038.44
2018-05-18T01:14:03.476Z,98034.94
2018-05-18T01:16:29.926Z,98047.38
2018-05-18T01:18:56.143Z,98045.51
2018-05-18T01:21:22.646Z,98052.98
2018-05-18T01:23:48.936Z,98046.28
2018-05-18T01:26:15.211Z,98047.86
2018-05-18T01:28:41.784Z,98049.97
2018-05-18T01:31:08.051Z,98052.45
2018-05-18T01:33:34.556Z,98051.89
2018-05-18T01:36:00.843Z,98053.77
2018-05-18T01:38:27.126Z,98048.98
2018-05-18T01:40:53.694Z,98052.41
2018-05-18T01:43:19.923Z,98051.83
2018-05-18T01:45:46.479Z,98056.07
2018-05-18T01:48:12.746Z,98054.86
2018-05-18T01:50:38.965Z,98053.71
2018-05-18T01:53:05.447Z,98046.76
2018-05-18T01:55:32.068Z,98053.37
2018-05-18T01:57:58.580Z,98052.22
2018-05-18T02:00:24.883Z,98049.25
2018-05-18T02:02:51.151Z,98052.02
2018-05-18T02:05:17.667Z,98052.48
2018-05-18T02:07:44.121Z,98056.95
2018-05-18T02:10:10.631Z,98057.45
2018-05-18T02:12:36.891Z,98061.08
2018-05-18T02:15:03.204Z,98073.11
2018-05-18T02:17:29.653Z,98057.48
2018-05-18T02:19:55.886Z,98064.77
2018-05-18T02:22:22.926Z,98058.37
2018-05-18T02:24:49.226Z,98057.29
2018-05-18T02:27:15.526Z,98059.98
2018-05-18T02:29:41.970Z,98051.84
2018-05-18T02:32:08.234Z,98054.45
2018-05-18T02:34:34.850Z,98057.58
2018-05-18T02:37:01.139Z,98060.94
2018-05-18T02:39:27.364Z,98055.60
2018-05-18T02:41:53.799Z,98046.70
2018-05-18T02:44:20.083Z,98052.84
2018-05-18T02:46:46.594Z,98058.73
2018-05-18T02:49:12.872Z,98061.51
2018-05-18T02:51:39.171Z,98062.22
2018-05-18T02:54:05.607Z,98063.76
2018-05-18T02:56:31.889Z,98058.22
2018-05-18T02:58:58.361Z,98069.16
2018-05-18T03:01:24.622Z,98070.19
2018-05-18T03:03:51.641Z,98069.91
2018-05-18T03:06:18.075Z,98066.78
2018-05-18T03:08:44.295Z,98067.98
2018-05-18T03:11:10.907Z,98068.27
2018-05-18T03:13:37.224Z,98068.81
2018-05-18T03:16:03.568Z,98072.52
2018-05-18T03:18:29.999Z,98066.96
2018-05-18T03:20:56.277Z,98070.77
2018-05-18T03:23:22.839Z,98073.00
2018-05-18T03:25:49.084Z,98078.79
2018-05-18T03:28:15.381Z,98079.45
2018-05-18T03:30:41.858Z,98077.02
2018-05-18T03:33:08.075Z,98077.52
2018-05-18T03:35:34.565Z,98079.78
2018-05-18T03:38:00.835Z,98079.11
2018-05-18T03:40:27.066Z,98082.31
2018-05-18T03:42:53.611Z,98071.03
2018-05-18T03:45:19.836Z,98068.45
2018-05-18T03:47:46.253Z,98064.36
2018-05-18T03:50:12.559Z,98065.50
2018-05-18T03:52:38.815Z,98070.77
2018-05-18T03:55:05.400Z,98066.90
2018-05-18T03:57:31.665Z,98068.91
2018-05-18T03:59:58.060Z,98071.32
2018-05-18T04:02:36.496Z,98074.67
2018-05-18T04:18:26.672Z,98081.04
2018-05-18T04:20:53.268Z,98077.63
2018-05-18T04:23:19.501Z,98084.96
2018-05-18T04:25:45.879Z,98084.86
2018-05-18T04:28:12.298Z,98092.95
2018-05-18T04:30:38.543Z,98088.95
2018-05-18T04:33:05.233Z,98083.48
2018-05-18T04:35:31.468Z,98101.48
2018-05-18T04:37:57.802Z,98105.39
2018-05-18T04:40:24.203Z,98103.22
2018-05-18T04:42:50.464Z,98105.30
2018-05-18T04:45:16.715Z,98102.70
2018-05-18T04:47:42.983Z,98108.95
2018-05-18T04:50:09.258Z,98106.59
2018-05-18T04:52:35.517Z,98102.13
2018-05-18T04:55:01.857Z,98107.78
2018-05-18T04:57:28.074Z,98110.47
2018-05-18T04:59:54.304Z,98109.25
2018-05-18T05:02:20.581Z,98107.67
2018-05-18T05:04:46.815Z,98103.00
2018-05-18T05:07:13.062Z,98103.09
2018-05-18T05:09:39.330Z,98105.69
2018-05-18T05:12:05.559Z,98103.66
2018-05-18T05:14:31.845Z,98105.77
2018-05-18T05:16:58.102Z,98112.14
2018-05-18T05:19:24.379Z,98113.03
2018-05-18T05:21:50.610Z,98117.30
2018-05-18T05:24:16.883Z,98122.06
2018-05-18T05:26:43.158Z,98118.30
2018-05-18T05:29:09.394Z,98116.06
2018-05-18T05:31:35.667Z,98119.00
2018-05-18T05:34:01.934Z,98121.25
2018-05-18T05:36:28.151Z,98124.80
2018-05-18T05:38:54.438Z,98125.89
2018-05-18T05:41:20.690Z,98130.36
2018-05-18T05:43:46.918Z,98137.11
2018-05-18T05:46:13.183Z,98139.22
2018-05-18T05:48:39.410Z,98136.35
2018-05-18T05:51:05.653Z,98137.80
2018-05-18T05:53:31.946Z,98134.89
2018-05-18T05:55:58.161Z,98139.38
2018-05-18T05:58:24.428Z,98144.19
2018-05-18T06:00:50.674Z,98138.93
2018-05-18T06:03:16.903Z,98142.47
2018-05-18T06:05:43.161Z,98144.73
2018-05-18T06:08:09.433Z,98141.36
2018-05-18T06:10:35.693Z,98139.20
2018-05-18T06:13:01.965Z,98146.69
2018-05-18T06:15:28.214Z,98143.39
2018-05-18T06:17:54.451Z,98139.79
2018-05-18T06:20:20.683Z,98147.39
2018-05-18T06:22:46.962Z,98151.80
2018-05-18T06:25:13.209Z,98146.86
2018-05-18T06:27:39.462Z,98154.08
2018-05-18T06:30:05.727Z,98158.39
2018-05-18T06:32:31.958Z,98150.66
2018-05-18T06:34:58.222Z,98152.84
2018-05-18T06:37:24.487Z,98152.19
2018-05-18T06:39:50.717Z,98158.55
2018-05-18T06:42:16.960Z,98153.45
2018-05-18T06:44:43.243Z,98152.48
2018-05-18T06:47:09.467Z,98153.27
2018-05-18T06:49:35.707Z,98157.54
2018-05-18T06:52:01.986Z,98158.70
2018-05-18T06:54:28.328Z,98164.80
2018-05-18T06:56:54.590Z,98166.36
2018-05-18T06:59:20.866Z,98175.27
2018-05-18T07:01:47.117Z,98175.27
2018-05-18T07:04:13.339Z,98173.82
2018-05-18T07:06:39.595Z,98167.01
2018-05-18T07:09:05.894Z,98171.51
2018-05-18T07:11:32.185Z,98170.95
2018-05-18T07:13:58.461Z,98178.02
2018-05-18T07:16:24.734Z,98170.38
2018-05-18T07:18:50.969Z,98171.60
2018-05-18T07:21:17.255Z,98171.74
2018-05-18T07:23:43.510Z,98175.55
2018-05-18T07:26:09.755Z,98176.09
2018-05-18T07:28:36.035Z,98170.98
2018-05-18T07:31:02.266Z,98169.28
2018-05-18T07:33:28.485Z,98169.53
2018-05-18T07:35:55.203Z,98172.13
2018-05-18T07:38:21.434Z,98172.39
2018-05-18T07:40:47.670Z,98177.88
2018-05-18T07:43:13.938Z,98175.23
2018-05-18T07:45:40.158Z,98177.31
2018-05-18T07:48:06.391Z,98183.53
2018-05-18T07:50:32.674Z,98181.56
2018-05-18T07:52:58.922Z,98181.59
2018-05-18T07:55:25.202Z,98179.41
2018-05-18T07:57:51.514Z,98187.83
2018-05-18T08:00:17.819Z,98180.05
2018-05-18T08:02:44.042Z,98182.81
2018-05-18T08:05:10.310Z,98179.10
2018-05-18T08:07:36.531Z,98188.56
2018-05-18T08:10:02.835Z,98192.58
2018-05-18T08:12:29.085Z,98179.13
2018-05-18T08:14:55.336Z,98185.78
2018-05-18T08:17:21.571Z,98189.42
2018-05-18T08:19:47.878Z,98191.11
2018-05-18T08:22:14.127Z,98194.69
2018-05-18T08:24:40.360Z,98187.63
2018-05-18T08:27:18.970Z,98189.64
2018-05-18T08:29:45.266Z,98195.78
2018-05-18T08:32:11.506Z,98193.77
2018-05-18T08:34:37.767Z,98195.48
2018-05-18T08:37:04.050Z,98195.73
2018-05-18T08:39:30.300Z,98200.28
2018-05-18T08:41:56.570Z,98200.78
2018-05-18T08:44:22.854Z,98200.16
2018-05-18T08:46:49.097Z,98203.05
2018-05-18T08:49:15.358Z,98209.13
2018-05-18T08:51:41.613Z,98210.42
2018-05-18T08:54:07.846Z,98206.62
2018-05-18T08:56:34.131Z,98207.98
2018-05-18T08:59:00.394Z,98212.09
2018-05-18T09:01:26.628Z,98214.69
2018-05-18T09:03:52.887Z,98220.69
2018-05-18T09:06:19.167Z,98220.22
2018-05-18T09:08:45.447Z,98220.80
2018-05-18T09:11:11.708Z,98218.38
2018-05-18T09:13:38.734Z,98221.57
2018-05-18T09:16:04.987Z,98225.37
2018-05-18T09:18:31.259Z,98220.52
2018-05-18T09:20:57.522Z,98231.33
2018-05-18T09:23:23.742Z,98232.41
2018-05-18T09:25:50.005Z,98227.33
2018-05-18T09:28:16.226Z,98227.85
2018-05-18T09:30:42.470Z,98231.68
2018-05-18T09:33:08.746Z,98230.83
2018-05-18T09:35:34.970Z,98232.61
2018-05-18T09:38:01.228Z,98233.31
2018-05-18T09:40:27.525Z,98236.33
2018-05-18T09:42:53.758Z,98236.95
2018-05-18T09:45:20.003Z,98251.20
2018-05-18T09:47:46.274Z,98244.95
2018-05-18T09:50:12.507Z,98241.42
2018-05-18T09:52:38.726Z,98245.32
2018-05-18T09:55:05.312Z,98237.65
2018-05-18T09:57:31.315Z,98238.52
2018-05-18T09:59:57.622Z,98239.44
2018-05-18T10:02:23.878Z,98244.34
2018-05-18T10:04:50.146Z,98237.91
2018-05-18T10:07:16.374Z,98236.30
2018-05-18T10:09:42.674Z,98237.30
2018-05-18T10:12:08.897Z,98236.39
2018-05-18T10:14:35.219Z,98237.25
2018-05-18T10:17:01.477Z,98239.66
2018-05-18T10:19:27.726Z,98244.23
2018-05-18T10:21:53.949Z,98241.20
2018-05-18T10:24:20.255Z,98237.14
2018-05-18T10:26:46.550Z,98245.28
2018-05-18T10:29:12.770Z,98240.58
2018-05-18T10:31:39.056Z,98246.78
2018-05-18T10:34:05.334Z,98251.50
2018-05-18T10:36:31.566Z,98250.59
2018-05-18T10:38:57.817Z,98250.52
2018-05-18T10:41:24.062Z,98254.62
2018-05-18T10:43:50.280Z,98258.04
2018-05-18T10:46:16.522Z,98252.97
2018-05-18T10:48:42.782Z,98260.23
2018-05-18T10:51:08.994Z,98257.45
2018-05-18T10:53:35.257Z,98251.34
2018-05-18T10:56:01.485Z,98260.41
2018-05-18T10:58:27.824Z,98258.18
2018-05-18T11:00:54.011Z,98253.56
2018-05-18T11:03:20.246Z,98254.98
2018-05-18T11:05:46.499Z,98253.73
2018-05-18T11:08:12.787Z,98248.41
2018-05-18T11:10:39.041Z,98248.03
2018-05-18T11:13:05.266Z,98255.23
2018-05-18T11:15:31.554Z,98250.11
2018-05-18T11:17:57.798Z,98259.95
2018-05-18T11:20:24.019Z,98253.95
2018-05-18T11:22:50.278Z,98250.04
2018-05-18T11:25:16.502Z,98259.15
2018-05-18T11:27:42.727Z,98249.76
2018-05-18T11:30:09.022Z,98249.52
2018-05-18T11:32:35.274Z,98249.08
2018-05-18T11:35:01.526Z,98247.72
2018-05-18T11:37:27.770Z,98249.91
2018-05-18T11:39:54.001Z,98241.03
2018-05-18T11:42:20.250Z,98248.17
2018-05-18T11:44:46.543Z,98245.36
2018-05-18T11:47:12.792Z,98241.16
2018-05-18T11:49:39.168Z,98239.63
2018-05-18T11:52:05.460Z,98245.58
2018-05-18T11:54:31.702Z,98239.70
2018-05-18T11:56:57.956Z,98239.12
2018-05-18T11:59:24.217Z,98236.05
2018-05-18T12:01:50.430Z,98233.27
2018-05-18T12:04:16.676Z,98243.95
2018-05-18T12:06:42.963Z,98234.80
2018-05-18T12:09:09.231Z,98232.62
2018-05-18T12:11:35.442Z,98227.80
2018-05-18T12:14:01.765Z,98227.98
2018-05-18T12:16:27.998Z,98222.60
2018-05-18T12:18:54.274Z,98224.33
2018-05-18T12:21:20.572Z,98227.58
2018-05-18T12:23:46.793Z,98215.28
2018-05-18T12:26:13.126Z,98218.19
2018-05-18T12:28:39.346Z,98223.64
2018-05-18T12:31:05.614Z,98218.84
2018-05-18T12:33:31.856Z,98218.45
2018-05-18T12:35:58.154Z,98213.47
2018-05-18T12:38:24.429Z,98212.44
2018-05-18T12:40:50.644Z,98208.82
2018-05-18T12:43:16.978Z,98211.47
2018-05-18T12:45:43.206Z,98209.10
2018-05-18T12:48:09.491Z,98213.73
2018-05-18T12:50:35.772Z,98212.91
2018-05-18T12:53:02.069Z,98214.52
2018-05-18T12:55:28.335Z,98214.44
2018-05-18T12:57:54.662Z,98210.53
2018-05-18T13:00:20.942Z,98206.03
2018-05-18T13:02:47.206Z,98205.13
2018-05-18T13:05:13.473Z,98205.43
2018-05-18T13:07:39.740Z,98210.67
2018-05-18T13:10:05.986Z,98202.05
2018-05-18T13:12:32.238Z,98203.53
2018-05-18T13:14:58.525Z,98197.94
2018-05-18T13:17:24.779Z,98203.19
2018-05-18T13:19:51.058Z,98201.89
2018-05-18T13:22:17.314Z,98195.73
2018-05-18T13:24:43.550Z,98205.35
2018-05-18T13:27:09.839Z,98207.47
2018-05-18T13:29:36.106Z,98205.23
2018-05-18T13:32:02.342Z,98192.84
2018-05-18T13:34:28.637Z,98197.52
2018-05-18T13:36:54.926Z,98186.19
2018-05-18T13:39:21.164Z,98177.37
2018-05-18T13:41:47.423Z,98182.42
2018-05-18T13:44:13.679Z,98182.61
2018-05-18T13:46:39.902Z,98191.59
2018-05-18T13:49:06.154Z,98180.20
2018-05-18T13:51:32.402Z,98176.60
2018-05-18T13:53:58.638Z,98173.77
2018-05-18T13:56:24.971Z,98170.01
2018-05-18T13:58:51.223Z,98171.86
2018-05-18T14:01:17.511Z,98179.29
2018-05-18T14:03:43.790Z,98179.16
2018-05-18T14:06:10.014Z,98179.31
2018-05-18T14:08:36.291Z,98175.09
2018-05-18T14:11:02.573Z,98170.73
2018-05-18T14:13:28.851Z,98173.25
2018-05-18T14:15:55.107Z,98173.22
2018-05-18T14:18:21.362Z,98166.05
2018-05-18T14:20:47.599Z,98173.14
2018-05-18T14:23:13.899Z,98175.22
2018-05-18T14:25:40.159Z,98170.14
2018-05-18T14:28:06.399Z,98168.16
2018-05-18T14:30:32.702Z,98171.73
2018-05-18T14:32:58.994Z,98167.47
2018-05-18T14:35:25.259Z,98170.52
2018-05-18T14:37:51.547Z,98173.07
2018-05-18T14:40:17.782Z,98174.31
2018-05-18T14:42:44.011Z,98173.70
2018-05-18T14:45:10.238Z,98170.98
2018-05-18T14:47:37.514Z,98169.00
2018-05-18T14:50:03.778Z,98159.19
2018-05-18T14:52:30.054Z,98164.43
2018-05-18T14:54:56.394Z,98164.21
2018-05-18T14:57:22.641Z,98161.02
2018-05-18T14:59:49.185Z,98154.84
2018-05-18T15:02:15.555Z,98159.34
2018-05-18T15:04:41.815Z,98159.34
2018-05-18T15:07:08.077Z,98160.56
2018-05-18T15:09:34.343Z,98159.21
2018-05-18T15:12:00.608Z,98157.70
2018-05-18T15:14:26.934Z,98163.77
2018-05-18T15:16:53.230Z,98162.79
2018-05-18T15:19:19.558Z,98160.23
2018-05-18T15:21:45.846Z,98160.23
2018-05-18T15:24:12.127Z,98160.50
2018-05-18T15:26:38.359Z,98158.44
2018-05-18T15:29:04.667Z,98164.85
2018-05-18T15:31:30.958Z,98168.81
2018-05-18T15:33:57.232Z,98169.34
2018-05-18T15:36:23.485Z,98165.20
2018-05-18T15:38:49.790Z,98158.98
2018-05-18T15:41:16.330Z,98175.09
2018-05-18T15:43:42.787Z,98172.52
2018-05-18T15:46:09.177Z,98171.62
2018-05-18T15:48:35.448Z,98172.92
2018-05-18T15:51:01.688Z,98171.36
2018-05-18T15:53:27.969Z,98170.50
2018-05-18T15:55:54.207Z,98160.98
2018-05-18T15:58:20.602Z,98161.74
2018-05-18T16:00:46.978Z,98158.81
2018-05-18T16:03:13.254Z,98162.33
2018-05-18T16:05:39.508Z,98157.06
2018-05-18T16:08:05.807Z,98156.34
2018-05-18T16:10:32.210Z,98161.99
2018-05-18T16:12:58.519Z,98158.13
2018-05-18T16:15:24.758Z,98164.25
2018-05-18T16:17:50.990Z,98162.78
2018-05-18T16:20:17.234Z,98163.99
2018-05-18T16:22:43.546Z,98167.48
2018-05-18T16:25:09.790Z,98169.91
2018-05-18T16:27:36.023Z,98167.25
2018-05-18T16:30:02.415Z,98172.30
2018-05-18T16:32:28.662Z,98172.27
2018-05-18T16:34:54.895Z,98167.39
2018-05-18T16:37:21.162Z,98163.52
2018-05-18T16:39:47.418Z,98170.22
2018-05-18T16:42:13.658Z,98165.04
2018-05-18T16:44:39.950Z,98170.83
2018-05-18T16:47:06.187Z,98165.36
2018-05-18T16:49:32.410Z,98168.19
2018-05-18T16:51:58.678Z,98169.23
2018-05-18T16:54:24.930Z,98164.38
2018-05-18T16:56:51.174Z,98161.58
2018-05-18T16:59:17.462Z,98164.02
2018-05-18T17:01:43.690Z,98165.93
2018-05-18T17:04:09.908Z,98167.83
2018-05-18T17:06:36.202Z,98168.99
2018-05-18T17:09:02.486Z,98170.38
2018-05-18T17:11:28.734Z,98169.23
2018-05-18T17:13:55.009Z,98172.66
2018-05-18T17:16:21.269Z,98175.58
2018-05-18T17:18:47.492Z,98174.91
2018-05-18T17:21:13.743Z,98178.41
2018-05-18T17:23:39.986Z,98178.63
2018-05-18T17:26:06.218Z,98180.73
2018-05-18T17:28:32.476Z,98175.97
2018-05-18T17:30:58.743Z,98180.66
2018-05-18T17:33:24.975Z,98179.13
2018-05-18T17:35:51.271Z,98181.37
2018-05-18T17:38:17.499Z,98186.55
2018-05-18T17:40:43.728Z,98193.01
2018-05-18T17:43:09.982Z,98190.89
2018-05-18T17:45:36.439Z,98198.09
2018-05-18T17:48:02.700Z,98197.05
2018-05-18T17:50:28.958Z,98195.27
2018-05-18T17:52:55.211Z,98194.98
2018-05-18T17:55:21.471Z,98203.92
2018-05-18T17:57:47.734Z,98202.55
2018-05-18T18:00:14.002Z,98195.60
2018-05-18T18:02:40.242Z,98200.28
2018-05-18T18:05:06.509Z,98200.38
2018-05-18T18:07:32.758Z,98206.45
2018-05-18T18:09:58.984Z,98204.23
2018-05-18T18:12:25.263Z,98210.50
2018-05-18T18:14:51.730Z,98210.41
2018-05-18T18:17:17.959Z,98207.56
2018-05-18T18:19:44.231Z,98210.17
2018-05-18T18:22:10.572Z,98211.52
2018-05-18T18:24:36.826Z,98207.46
2018-05-18T18:27:03.106Z,98206.84
2018-05-18T18:29:29.335Z,98215.26
2018-05-18T18:31:55.559Z,98210.93
2018-05-18T18:34:21.799Z,98213.23
2018-05-18T18:36:48.006Z,98213.05
2018-05-18T18:39:14.250Z,98213.09
2018-05-18T18:41:40.507Z,98216.75
2018-05-18T18:44:06.731Z,98222.18
2018-05-18T18:46:32.951Z,98226.08
2018-05-18T18:48:59.214Z,98222.48
2018-05-18T18:51:25.576Z,98225.89
2018-05-18T18:53:51.804Z,98227.77
2018-05-18T18:56:18.107Z,98233.20
2018-05-18T18:58:44.553Z,98235.85
2018-05-18T19:01:10.693Z,98236.67
2018-05-18T19:03:37.047Z,98242.02
2018-05-18T19:06:03.314Z,98245.82
2018-05-18T19:08:29.604Z,98253.12
2018-05-18T19:10:55.910Z,98258.02
2018-05-18T19:13:22.150Z,98260.59
2018-05-18T19:15:48.630Z,98261.95
2018-05-18T19:18:14.883Z,98265.45
2018-05-18T19:20:41.136Z,98265.55
2018-05-18T19:23:07.354Z,98264.30
2018-05-18T19:25:33.695Z,98268.70
2018-05-18T19:27:59.915Z,98267.06
2018-05-18T19:30:26.293Z,98272.06
2018-05-18T19:32:52.566Z,98271.88
2018-05-18T19:35:18.815Z,98274.03
2018-05-18T19:37:45.108Z,98272.59
2018-05-18T19:40:11.413Z,98273.98
2018-05-18T19:42:37.715Z,98273.73
2018-05-18T19:45:03.962Z,98273.59
2018-05-18T19:47:30.243Z,98274.75
2018-05-18T19:49:56.569Z,98275.42
2018-05-18T19:52:22.770Z,98279.77
2018-05-18T19:54:49.034Z,98289.62
2018-05-18T19:57:15.257Z,98282.88
2018-05-18T19:59:41.485Z,98289.90
2018-05-18T20:02:07.739Z,98286.59
2018-05-18T20:04:34.038Z,98281.89
2018-05-18T20:07:00.363Z,98278.36
2018-05-18T20:09:26.626Z,98278.41
2018-05-18T20:11:52.887Z,98284.74
2018-05-18T20:14:19.123Z,98281.72
2018-05-18T20:16:45.399Z,98282.58
2018-05-18T20:19:11.618Z,98286.78
2018-05-18T20:21:37.907Z,98283.69
2018-05-18T20:24:04.163Z,98285.30
2018-05-18T20:26:30.500Z,98288.11
2018-05-18T20:28:56.724Z,98290.95
2018-05-18T20:31:22.999Z,98291.59
2018-05-18T20:33:49.218Z,98292.83
2018-05-18T20:36:15.442Z,98291.91
2018-05-18T20:38:41.693Z,98295.28
2018-05-18T20:41:07.934Z,98290.56
2018-05-18T20:43:34.166Z,98293.06
2018-05-18T20:46:00.519Z,98294.28
2018-05-18T20:48:26.739Z,98298.63
2018-05-18T20:50:53.323Z,98290.00
2018-05-18T20:53:19.685Z,98294.28
2018-05-18T20:55:45.959Z,98294.89
2018-05-18T20:58:12.206Z,98288.36
2018-05-18T21:00:38.735Z,98290.74
2018-05-18T21:03:04.982Z,98284.17
2018-05-18T21:05:31.290Z,98291.17
2018-05-18T21:07:57.540Z,98290.17
2018-05-18T21:10:23.760Z,98288.39
2018-05-18T21:12:49.967Z,98285.72
2018-05-18T21:15:16.425Z,98282.19
2018-05-18T21:17:42.681Z,98283.58
2018-05-18T21:20:08.906Z,98281.67
2018-05-18T21:22:35.276Z,98288.48
2018-05-18T21:25:01.669Z,98284.19
2018-05-18T21:27:27.986Z,98286.59
2018-05-18T21:29:54.393Z,98286.98
2018-05-18T21:32:20.708Z,98291.29
2018-05-18T21:34:46.950Z,98293.02
2018-05-18T21:37:13.218Z,98291.41
2018-05-18T21:39:39.426Z,98288.94
2018-05-18T21:42:05.646Z,98295.55
2018-05-18T21:44:32.275Z,98299.89
2018-05-18T21:46:58.510Z,98302.33
2018-05-18T21:49:24.905Z,98300.72
2018-05-18T21:51:51.228Z,98302.75
2018-05-18T21:54:17.455Z,98301.27
2018-05-18T21:56:43.968Z,98300.94
2018-05-18T21:59:10.279Z,98303.44
2018-05-18T22:01:36.616Z,98296.31
2018-05-18T22:04:02.874Z,98303.77
2018-05-18T22:06:29.385Z,98302.37
2018-05-18T22:08:55.579Z,98298.05
2018-05-18T22:11:21.842Z,98301.98
2018-05-18T22:13:48.419Z,98300.72
2018-05-18T22:16:14.652Z,98308.11
2018-05-18T22:18:41.033Z,98299.67
2018-05-18T22:21:07.330Z,98301.66
2018-05-18T22:23:33.563Z,98304.45
2018-05-18T22:26:00.072Z,98312.09
2018-05-18T22:28:26.363Z,98308.80
2018-05-18T22:30:52.717Z,98307.70
2018-05-18T22:33:19.058Z,98306.40
2018-05-18T22:35:45.311Z,98299.17
2018-05-18T22:38:11.797Z,98299.80
2018-05-18T22:40:38.035Z,98299.33
2018-05-18T22:43:04.338Z,98303.45
2018-05-18T22:45:30.779Z,98302.42
2018-05-18T22:47:57.046Z,98295.24
2018-05-18T22:50:23.555Z,98292.37
2018-05-18T22:52:49.794Z,98291.06
2018-05-18T22:55:16.159Z,98298.89
2018-05-18T22:57:42.709Z,98292.77
2018-05-18T23:00:09.021Z,98286.27
2018-05-18T23:02:35.414Z,98289.36
2018-05-18T23:05:01.691Z,98286.59
2018-05-18T23:07:27.915Z,98290.44
2018-05-18T23:09:54.455Z,98286.02
2018-05-18T23:12:20.715Z,98284.03
2018-05-18T23:14:47.093Z,98284.56
2018-05-18T23:17:13.354Z,98281.39
2018-05-18T23:19:39.614Z,98276.91
2018-05-18T23:22:06.150Z,98281.56
2018-05-18T23:24:32.371Z,98282.55
2018-05-18T23:26:59.323Z,98273.03
2018-05-18T23:29:25.598Z,98279.45
2018-05-18T23:31:51.889Z,98276.90
2018-05-18T23:34:18.368Z,98276.13
2018-05-18T23:36:44.598Z,98281.79
2018-05-18T23:39:10.945Z,98283.72
2018-05-18T23:41:37.226Z,98277.83
2018-05-18T23:44:03.440Z,98281.33
2018-05-18T23:46:29.977Z,98276.38
2018-05-18T23:48:56.258Z,98278.99
2018-05-18T23:51:22.571Z,98278.13
2018-05-18T23:53:48.922Z,98273.81
2018-05-18T23:56:15.187Z,98281.08
2018-05-18T23:58:42.470Z,98282.27
